Erfurt, Germany

2:39 AM CEST on July 26, 2017 (GMT +0200)
Krüger | | Change Station

Elev 659 ft 50.97 °N, 11.01 °E | Updated 12 seconds ago

Light Drizzle
Light Drizzle
56.3 °F
Feels Like 56.3 °F
N
0.2
Wind Variable Wind from ESE
Gusts 2.5 mph

Today
High -- | Low -- °F
--% Chance of Precip.
Yesterday
High -- | Low -- °F
Precip. -- in
Pressure 29.59 in
Visibility 4.3 miles
Clouds Few 600 ft
Scattered Clouds 1100 ft
Mostly Cloudy 2300 ft
Dew Point 55 °F
Humidity 96%
Rainfall 0.00 in
Snow Depth Not available.
5:33 AM 9:10 PM
Waxing Crescent, 9% visible
METAR EDDE 260020Z 31012KT 7000 -DZ FEW006 SCT011 BKN023 13/12 Q1002
Pressure 29.59 in
Visibility 4.3 miles
Clouds Few 600 ft
Scattered Clouds 1100 ft
Mostly Cloudy 2300 ft
Dew Point 55 °F
Humidity 96%
Rainfall 0.00 in
Snow Depth Not available.
5:33 AM 9:10 PM
Waxing Crescent, 9% visible
METAR EDDE 260020Z 31012KT 7000 -DZ FEW006 SCT011 BKN023 13/12 Q1002

Get Severe Weather Alerts

Thanks for signing up!

Be on the lookout for a verification email in your inbox.

You'll start receiving the daily forecast at 6 AM.

×

10-Day Weather Forecast

×

Almanac

Astronomy

Jul. 26, 2017 Rise Set
Actual Time
Civil Twilight
Nautical Twilight
Astronomical Twilight
Moon
Length of Visible Light
Length of Day
Tomorrow will be .
, % of the Moon is Illuminated

Today's Extremes

Country Highs Country Lows

Community

WunderPhotos

Category 6

Welcome to Category 6. This is the collective home for Weather Underground's featured writeups by Dr. Jeff Masters (right), Bob Henson (left), Chris Burt, and other regular contributors.

Nearby

Air Quality

  Air Quality AQ Index Pollutant
Not available.

Snow Depth

Station Depth Elevation

Earthquake Activity

City Distance Mag. Time & Date
Minimum magnitude displayed is 2.5.

Coastal Water Temperatures

Place Temperature

Stations

Nearby Weather Stations

Station Location Temp. Windchill Dew Point Humidity Wind Precip. Elev Updated Type